Larsen Bay, AK (99624)

12:13 PM AKDT on August 24, 2016 (GMT -0800)
Kodiak | | Change Station

Elev 112 ft 57.75 °N, 152.49 °W | Updated 3 minutes ago

Overcast
Overcast
62 °F
Feels Like 62 °F
N
9
Wind Variable Wind from SSW

Today
High -- | Low -- °F
--% Chance of Precip.
Yesterday
High -- | Low -- °F
Precip. -- in
Pressure 30.19 in
Visibility 10.0 miles
Clouds Mostly Cloudy 2800 ft
Overcast 3300 ft
Dew Point 56 °F
Humidity 80%
Rainfall 0.16 in
Snow Depth Not available.
7:00 AM 9:30 PM
Waning Gibbous, 54% visible
SPECI PADQ 242010Z 20008KT 10SM BKN028 OVC033 17/13 A3019 RMK AO2 T01670133
Pressure 30.19 in
Visibility 10.0 miles
Clouds Mostly Cloudy 2800 ft
Overcast 3300 ft
Dew Point 56 °F
Humidity 80%
Rainfall 0.16 in
Snow Depth Not available.
7:00 AM 9:30 PM
Waning Gibbous, 54% visible
SPECI PADQ 242010Z 20008KT 10SM BKN028 OVC033 17/13 A3019 RMK AO2 T01670133

10-Day Weather Forecast

Almanac

Astronomy

Aug. 24, 2016 Rise Set
Actual Time
Civil Twilight
Nautical Twilight
Astronomical Twilight
Moon
Length of Visible Light
Length of Day
Tomorrow will be .
, % of the Moon is Illuminated

Today's Extremes

State Highs State Lows

Community

WunderPhotos

Upload Photos

1,934,699 photos uploaded!

WunderBlog® & News

Nearby

Air Quality

  Air Quality AQ Index Pollutant
Not available.

Snow Depth

Station Depth Elevation

Earthquake Activity

City Distance Mag. Time & Date
Minimum magnitude displayed is 2.5.

Coastal Water Temperatures

Place Temperature

Stations

Nearby Weather Stations

Station Location Temp. Windchill Dew Point Humidity Wind Precip. Elev Updated Type
                   

Watches & Warnings

There are currently no watches in effect.